createdAt,value
2017-06-04T00:00:11.762Z,1005.31
2017-06-04T00:01:11.753Z,1005.31
2017-06-04T00:02:11.730Z,1005.31
2017-06-04T00:03:11.721Z,1005.3
2017-06-04T00:04:11.710Z,1005.3
2017-06-04T00:05:11.691Z,1005.31
2017-06-04T00:06:11.681Z,1005.3
2017-06-04T00:07:11.665Z,1005.28
2017-06-04T00:08:11.654Z,1005.31
2017-06-04T00:09:11.642Z,1005.3
2017-06-04T00:10:11.633Z,1005.31
2017-06-04T00:11:11.621Z,1005.31
2017-06-04T00:12:11.652Z,1005.32
2017-06-04T00:13:11.584Z,1005.33
2017-06-04T00:14:11.571Z,1005.31
2017-06-04T00:15:11.557Z,1005.34
2017-06-04T00:16:11.550Z,1005.35
2017-06-04T00:17:11.531Z,1005.36
2017-06-04T00:18:11.521Z,1005.32
2017-06-04T00:19:11.507Z,1005.29
2017-06-04T00:20:11.492Z,1005.3
2017-06-04T00:21:11.476Z,1005.32
2017-06-04T00:22:11.465Z,1005.33
2017-06-04T00:23:11.452Z,1005.32
2017-06-04T00:24:11.441Z,1005.32
2017-06-04T00:25:11.423Z,1005.35
2017-06-04T00:26:11.758Z,1005.41
2017-06-04T00:27:11.401Z,1005.38
2017-06-04T00:28:11.385Z,1005.42
2017-06-04T00:29:11.373Z,1005.39
2017-06-04T00:30:11.361Z,1005.46
2017-06-04T00:31:11.347Z,1005.46
2017-06-04T00:32:11.330Z,1005.47
2017-06-04T00:33:11.322Z,1005.45
2017-06-04T00:34:11.301Z,1005.45
2017-06-04T00:35:11.287Z,1005.5
2017-06-04T00:36:11.279Z,1005.43
2017-06-04T00:37:11.260Z,1005.47
2017-06-04T00:38:11.250Z,1005.49
2017-06-04T00:39:11.243Z,1005.47
2017-06-04T00:40:11.220Z,1005.49
2017-06-04T00:41:11.211Z,1005.45
2017-06-04T00:42:11.196Z,1005.47
2017-06-04T00:43:11.179Z,1005.42
2017-06-04T00:44:11.164Z,1005.41
2017-06-04T00:45:11.151Z,1005.41
2017-06-04T00:46:11.138Z,1005.41
2017-06-04T00:47:11.126Z,1005.48
2017-06-04T00:48:11.109Z,1005.41
2017-06-04T00:49:11.095Z,1005.44
2017-06-04T00:50:11.081Z,1005.45
2017-06-04T00:51:11.070Z,1005.43
2017-06-04T00:52:11.053Z,1005.48
2017-06-04T00:53:11.045Z,1005.46
2017-06-04T00:54:11.031Z,1005.49
2017-06-04T00:55:11.020Z,1005.46
2017-06-04T00:56:11.003Z,1005.47
2017-06-04T00:57:10.990Z,1005.49
2017-06-04T00:58:10.978Z,1005.5
2017-06-04T00:59:10.961Z,1005.49
2017-06-04T01:00:10.947Z,1005.5
2017-06-04T01:01:10.940Z,1005.45
2017-06-04T01:02:10.921Z,1005.53
2017-06-04T01:03:10.913Z,1005.53
2017-06-04T01:04:10.890Z,1005.5
2017-06-04T01:05:10.879Z,1005.5
2017-06-04T01:06:10.868Z,1005.5
2017-06-04T01:07:10.852Z,1005.5
2017-06-04T01:08:10.838Z,1005.49
2017-06-04T01:09:10.820Z,1005.5
2017-06-04T01:10:10.810Z,1005.5
2017-06-04T01:11:10.796Z,1005.5
2017-06-04T01:12:10.780Z,1005.5
2017-06-04T01:13:10.763Z,1005.45
2017-06-04T01:14:10.751Z,1005.4
2017-06-04T01:15:10.741Z,1005.45
2017-06-04T01:16:10.723Z,1005.44
2017-06-04T01:17:10.708Z,1005.5
2017-06-04T01:18:10.695Z,1005.54
2017-06-04T01:19:10.681Z,1005.51
2017-06-04T01:20:10.670Z,1005.48
2017-06-04T01:21:10.661Z,1005.49
2017-06-04T01:22:10.641Z,1005.49
2017-06-04T01:23:10.629Z,1005.49
2017-06-04T01:24:10.609Z,1005.47
2017-06-04T01:25:10.596Z,1005.46
2017-06-04T01:26:10.588Z,1005.44
2017-06-04T01:27:10.569Z,1005.46
2017-06-04T01:28:10.560Z,1005.47
2017-06-04T01:29:10.543Z,1005.45
2017-06-04T01:30:10.524Z,1005.5
2017-06-04T01:31:10.520Z,1005.47
2017-06-04T01:32:10.499Z,1005.52
2017-06-04T01:33:10.485Z,1005.5
2017-06-04T01:34:10.472Z,1005.52
2017-06-04T01:35:10.460Z,1005.53
2017-06-04T01:36:10.439Z,1005.56
2017-06-04T01:37:10.426Z,1005.56
2017-06-04T01:38:10.414Z,1005.6
2017-06-04T01:39:10.402Z,1005.58
2017-06-04T01:40:10.388Z,1005.62
2017-06-04T01:41:10.370Z,1005.61
2017-06-04T01:42:10.362Z,1005.63
2017-06-04T01:43:10.349Z,1005.61
2017-06-04T01:44:10.329Z,1005.67
2017-06-04T01:45:10.320Z,1005.67
2017-06-04T01:46:10.298Z,1005.65
2017-06-04T01:47:10.285Z,1005.67
2017-06-04T01:48:10.270Z,1005.69
2017-06-04T01:49:10.257Z,1005.72
2017-06-04T01:50:10.252Z,1005.7
2017-06-04T01:51:10.232Z,1005.73
2017-06-04T01:52:10.222Z,1005.73
2017-06-04T01:53:10.198Z,1005.71
2017-06-04T01:54:10.191Z,1005.75
2017-06-04T01:55:10.173Z,1005.74
2017-06-04T01:56:10.163Z,1005.73
2017-06-04T01:57:10.148Z,1005.73
2017-06-04T01:58:10.129Z,1005.72
2017-06-04T01:59:10.119Z,1005.72
2017-06-04T02:00:10.099Z,1005.73
2017-06-04T02:01:10.091Z,1005.72
2017-06-04T02:02:10.076Z,1005.77
2017-06-04T02:03:10.062Z,1005.78
2017-06-04T02:04:10.052Z,1005.75
2017-06-04T02:05:10.057Z,1005.78
2017-06-04T02:06:10.022Z,1005.76
2017-06-04T02:07:10.008Z,1005.77
2017-06-04T02:08:09.988Z,1005.76
2017-06-04T02:09:09.976Z,1005.75
2017-06-04T02:10:09.970Z,1005.76
2017-06-04T02:11:10.003Z,1005.79
2017-06-04T02:12:09.932Z,1005.81
2017-06-04T02:13:09.920Z,1005.73
2017-06-04T02:14:09.909Z,1005.74
2017-06-04T02:15:09.890Z,1005.8
2017-06-04T02:16:09.873Z,1005.76
2017-06-04T02:17:09.860Z,1005.79
2017-06-04T02:18:09.844Z,1005.82
2017-06-04T02:19:09.829Z,1005.77
2017-06-04T02:20:09.820Z,1005.83
2017-06-04T02:21:09.799Z,1005.8
2017-06-04T02:22:09.801Z,1005.75
2017-06-04T02:23:09.771Z,1005.79
2017-06-04T02:24:09.758Z,1005.77
2017-06-04T02:25:09.745Z,1005.77
2017-06-04T02:26:09.742Z,1005.75
2017-06-04T02:27:09.719Z,1005.79
2017-06-04T02:28:09.701Z,1005.8
2017-06-04T02:29:09.689Z,1005.79
2017-06-04T02:30:09.683Z,1005.78
2017-06-04T02:31:09.656Z,1005.78
2017-06-04T02:32:09.643Z,1005.81
2017-06-04T02:33:09.628Z,1005.8
2017-06-04T02:34:09.644Z,1005.8
2017-06-04T02:35:09.598Z,1005.81
2017-06-04T02:36:09.685Z,1005.78
2017-06-04T02:37:09.573Z,1005.81
2017-06-04T02:38:09.606Z,1005.79
2017-06-04T02:39:09.539Z,1005.77
2017-06-04T02:40:09.528Z,1005.81
2017-06-04T02:41:09.510Z,1005.78
2017-06-04T02:42:09.523Z,1005.74
2017-06-04T02:43:09.480Z,1005.77
2017-06-04T02:44:09.469Z,1005.78
2017-06-04T02:45:09.453Z,1005.76
2017-06-04T02:46:09.448Z,1005.74
2017-06-04T02:47:09.421Z,1005.8
2017-06-04T02:48:09.405Z,1005.79
2017-06-04T02:49:09.396Z,1005.77
2017-06-04T02:50:09.379Z,1005.75
2017-06-04T02:51:09.368Z,1005.74
2017-06-04T02:52:09.349Z,1005.73
2017-06-04T02:53:09.335Z,1005.7
2017-06-04T02:54:09.322Z,1005.71
2017-06-04T02:55:09.304Z,1005.7
2017-06-04T02:56:09.289Z,1005.73
2017-06-04T02:57:09.273Z,1005.68
2017-06-04T02:58:09.260Z,1005.67
2017-06-04T02:59:09.245Z,1005.75
2017-06-04T03:00:09.230Z,1005.7
2017-06-04T03:01:09.218Z,1005.68
2017-06-04T03:02:09.200Z,1005.68
2017-06-04T03:03:09.187Z,1005.67
2017-06-04T03:04:09.171Z,1005.64
2017-06-04T03:05:09.155Z,1005.65
2017-06-04T03:06:09.143Z,1005.73
2017-06-04T03:07:09.132Z,1005.72
2017-06-04T03:08:09.118Z,1005.75
2017-06-04T03:09:09.100Z,1005.73
2017-06-04T03:10:09.083Z,1005.78
2017-06-04T03:11:09.068Z,1005.8
2017-06-04T03:12:09.062Z,1005.8
2017-06-04T03:13:09.037Z,1005.83
2017-06-04T03:14:09.024Z,1005.87
2017-06-04T03:15:09.008Z,1005.89
2017-06-04T03:16:09.002Z,1005.88
2017-06-04T03:17:08.983Z,1005.88
2017-06-04T03:18:08.967Z,1005.87
2017-06-04T03:19:08.949Z,1005.88
2017-06-04T03:20:08.945Z,1005.88
2017-06-04T03:21:08.919Z,1005.87
2017-06-04T03:22:08.904Z,1005.85
2017-06-04T03:23:08.891Z,1005.85
2017-06-04T03:24:08.874Z,1005.83
2017-06-04T03:25:08.858Z,1005.78
2017-06-04T03:26:08.843Z,1005.8
2017-06-04T03:27:08.831Z,1005.79
2017-06-04T03:28:08.821Z,1005.8
2017-06-04T03:29:08.801Z,1005.83
2017-06-04T03:30:08.790Z,1005.81
2017-06-04T03:31:08.770Z,1005.75
2017-06-04T03:32:08.767Z,1005.8
2017-06-04T03:33:08.741Z,1005.82
2017-06-04T03:34:08.727Z,1005.84
2017-06-04T03:35:08.711Z,1005.82
2017-06-04T03:36:08.701Z,1005.81
2017-06-04T03:37:08.683Z,1005.84
2017-06-04T03:38:08.669Z,1005.85
2017-06-04T03:39:08.660Z,1005.86
2017-06-04T03:40:08.641Z,1005.84
2017-06-04T03:41:08.623Z,1005.83
2017-06-04T03:42:08.612Z,1005.84
2017-06-04T03:43:08.593Z,1005.88
2017-06-04T03:44:08.579Z,1005.85
2017-06-04T03:45:08.562Z,1005.83
2017-06-04T03:46:08.550Z,1005.84
2017-06-04T03:47:08.530Z,1005.85
2017-06-04T03:48:08.520Z,1005.85
2017-06-04T03:49:08.509Z,1005.92
2017-06-04T03:50:08.490Z,1005.92
2017-06-04T03:51:08.475Z,1005.91
2017-06-04T03:52:08.460Z,1005.91
2017-06-04T03:53:08.442Z,1005.92
2017-06-04T03:54:08.431Z,1005.98
2017-06-04T03:55:08.418Z,1005.97
2017-06-04T03:56:08.500Z,1005.94
2017-06-04T03:57:08.390Z,1005.98
2017-06-04T03:58:08.378Z,1005.98
2017-06-04T03:59:08.356Z,1005.96
2017-06-04T04:00:08.341Z,1005.93
2017-06-04T04:01:08.330Z,1005.93
2017-06-04T04:02:08.311Z,1005.91
2017-06-04T04:03:08.303Z,1005.93
2017-06-04T04:04:08.280Z,1005.94
2017-06-04T04:05:08.263Z,1005.98
2017-06-04T04:06:08.247Z,1005.97
2017-06-04T04:07:08.351Z,1005.97
2017-06-04T04:08:08.222Z,1005.98
2017-06-04T04:09:08.213Z,1006.04
2017-06-04T04:10:08.189Z,1006.02
2017-06-04T04:11:08.279Z,1006
2017-06-04T04:12:08.159Z,1005.96
2017-06-04T04:13:08.149Z,1005.98
2017-06-04T04:14:08.130Z,1006
2017-06-04T04:15:08.120Z,1006.04
2017-06-04T04:16:08.099Z,1006.03
2017-06-04T04:17:08.088Z,1006.04
2017-06-04T04:18:08.071Z,1006.04
2017-06-04T04:19:08.063Z,1006
2017-06-04T04:20:08.040Z,1006
2017-06-04T04:21:08.180Z,1005.99
2017-06-04T04:22:08.013Z,1006.02
2017-06-04T04:23:08.049Z,1006.01
2017-06-04T04:24:07.980Z,1005.99
2017-06-04T04:25:07.970Z,1005.99
2017-06-04T04:26:07.949Z,1006.04
2017-06-04T04:27:07.943Z,1006.03
2017-06-04T04:28:07.920Z,1006.06
2017-06-04T04:29:07.978Z,1006.03
2017-06-04T04:30:07.913Z,1006.06
2017-06-04T04:31:07.932Z,1006.1
2017-06-04T04:32:07.863Z,1006.08
2017-06-04T04:33:07.906Z,1006.07
2017-06-04T04:34:07.831Z,1006.06
2017-06-04T04:35:07.819Z,1006.04
2017-06-04T04:36:07.803Z,1006
2017-06-04T04:37:07.790Z,1005.95
2017-06-04T04:38:07.776Z,1005.94
2017-06-04T04:39:07.761Z,1005.96
2017-06-04T04:40:07.747Z,1006.01
2017-06-04T04:41:07.744Z,1006.01
2017-06-04T04:42:07.715Z,1005.99
2017-06-04T04:43:07.702Z,1005.99
2017-06-04T04:44:07.684Z,1006
2017-06-04T04:45:07.673Z,1006
2017-06-04T04:46:07.651Z,1006.01
2017-06-04T04:47:07.638Z,1006.02
2017-06-04T04:48:07.621Z,1006.07
2017-06-04T04:49:07.611Z,1006.06
2017-06-04T04:50:07.591Z,1006.04
2017-06-04T04:51:07.581Z,1006.09
2017-06-04T04:52:07.572Z,1006.08
2017-06-04T04:53:07.550Z,1006.15
2017-06-04T04:54:07.535Z,1006.11
2017-06-04T04:55:07.520Z,1006.1
2017-06-04T04:56:07.510Z,1006.09
2017-06-04T04:57:07.489Z,1006.07
2017-06-04T04:58:07.479Z,1006.11
2017-06-04T04:59:07.460Z,1006.05
2017-06-04T05:00:07.449Z,1006.1
2017-06-04T05:01:07.431Z,1006.12
2017-06-04T05:02:07.422Z,1006.12
2017-06-04T05:03:07.403Z,1006.14
2017-06-04T05:04:07.388Z,1006.14
2017-06-04T05:05:07.369Z,1006.14
2017-06-04T05:06:07.361Z,1006.16
2017-06-04T05:07:07.352Z,1006.17
2017-06-04T05:08:07.325Z,1006.18
2017-06-04T05:09:07.319Z,1006.17
2017-06-04T05:10:07.301Z,1006.14
2017-06-04T05:11:07.285Z,1006.21
2017-06-04T05:12:07.271Z,1006.21
2017-06-04T05:13:07.255Z,1006.22
2017-06-04T05:14:07.241Z,1006.2
2017-06-04T05:15:07.224Z,1006.24
2017-06-04T05:16:07.213Z,1006.23
2017-06-04T05:17:07.201Z,1006.27
2017-06-04T05:18:07.185Z,1006.27
2017-06-04T05:19:07.170Z,1006.25
2017-06-04T05:20:07.151Z,1006.24
2017-06-04T05:21:07.141Z,1006.32
2017-06-04T05:22:07.120Z,1006.31
2017-06-04T05:23:07.105Z,1006.32
2017-06-04T05:24:07.100Z,1006.35
2017-06-04T05:25:07.082Z,1006.36
2017-06-04T05:26:07.064Z,1006.39
2017-06-04T05:27:07.051Z,1006.42
2017-06-04T05:28:07.039Z,1006.47
2017-06-04T05:29:07.019Z,1006.49
2017-06-04T05:30:07.004Z,1006.45
2017-06-04T05:31:06.990Z,1006.42
2017-06-04T05:32:06.974Z,1006.38
2017-06-04T05:33:06.960Z,1006.34
2017-06-04T05:34:06.946Z,1006.31
2017-06-04T05:35:06.932Z,1006.3
2017-06-04T05:36:06.915Z,1006.21
2017-06-04T05:37:06.899Z,1006.16
2017-06-04T05:38:06.889Z,1006.14
2017-06-04T05:39:06.874Z,1006.18
2017-06-04T05:40:06.871Z,1006.22
2017-06-04T05:41:06.844Z,1006.29
2017-06-04T05:42:06.830Z,1006.38
2017-06-04T05:43:06.819Z,1006.43
2017-06-04T05:44:06.822Z,1006.45
2017-06-04T05:45:06.788Z,1006.5
2017-06-04T05:46:06.769Z,1006.5
2017-06-04T05:47:06.758Z,1006.54
2017-06-04T05:48:06.744Z,1006.6
2017-06-04T05:49:06.729Z,1006.65
2017-06-04T05:50:06.716Z,1006.64
2017-06-04T05:51:06.702Z,1006.65
2017-06-04T05:52:06.682Z,1006.66
2017-06-04T05:53:06.668Z,1006.63
2017-06-04T05:54:06.659Z,1006.69
2017-06-04T05:55:06.641Z,1006.65
2017-06-04T05:56:06.626Z,1006.66
2017-06-04T05:57:06.613Z,1006.61
2017-06-04T05:58:06.599Z,1006.57
2017-06-04T05:59:06.583Z,1006.52
2017-06-04T06:00:06.571Z,1006.54
2017-06-04T06:01:06.556Z,1006.55
2017-06-04T06:02:06.539Z,1006.61
2017-06-04T06:03:06.524Z,1006.61
2017-06-04T06:04:06.526Z,1006.64
2017-06-04T06:05:06.501Z,1006.68
2017-06-04T06:06:06.592Z,1006.71
2017-06-04T06:07:06.475Z,1006.69
2017-06-04T06:08:06.456Z,1006.69
2017-06-04T06:09:06.442Z,1006.73
2017-06-04T06:10:06.463Z,1006.67
2017-06-04T06:11:06.466Z,1006.69
2017-06-04T06:12:06.496Z,1006.68
2017-06-04T06:13:06.384Z,1006.68
2017-06-04T06:14:06.379Z,1006.75
2017-06-04T06:15:06.361Z,1006.78
2017-06-04T06:16:06.443Z,1006.83
2017-06-04T06:17:06.330Z,1006.85
2017-06-04T06:18:06.369Z,1006.9
2017-06-04T06:19:06.300Z,1006.9
2017-06-04T06:20:06.308Z,1006.9
2017-06-04T06:21:06.269Z,1006.89
2017-06-04T06:22:06.261Z,1006.9
2017-06-04T06:23:06.247Z,1006.91
2017-06-04T06:24:06.230Z,1006.87
2017-06-04T06:25:06.219Z,1006.86
2017-06-04T06:26:06.208Z,1006.91
2017-06-04T06:27:06.191Z,1006.91
2017-06-04T06:28:06.181Z,1006.93
2017-06-04T06:29:06.160Z,1006.91
2017-06-04T06:30:06.150Z,1006.92
2017-06-04T06:31:06.137Z,1006.95
2017-06-04T06:32:06.125Z,1006.89
2017-06-04T06:33:06.107Z,1006.9
2017-06-04T06:34:06.089Z,1006.91
2017-06-04T06:35:06.075Z,1006.93
2017-06-04T06:36:06.068Z,1006.94
2017-06-04T06:37:06.050Z,1006.96
2017-06-04T06:38:06.042Z,1007
2017-06-04T06:39:06.021Z,1007.03
2017-06-04T06:40:06.008Z,1007.03
2017-06-04T06:41:05.996Z,1006.99
2017-06-04T06:42:05.979Z,1007
2017-06-04T06:43:05.966Z,1007.05
2017-06-04T06:44:05.952Z,1007.05
2017-06-04T06:45:05.939Z,1007.09
2017-06-04T06:46:05.925Z,1007.1
2017-06-04T06:47:05.912Z,1007.11
2017-06-04T06:48:05.900Z,1007.1
2017-06-04T06:49:05.881Z,1007.12
2017-06-04T06:50:05.870Z,1007.09
2017-06-04T06:51:05.883Z,1007.08
2017-06-04T06:52:05.839Z,1007.15
2017-06-04T06:53:05.833Z,1007.11
2017-06-04T06:54:05.816Z,1007.1
2017-06-04T06:55:05.802Z,1007.13
2017-06-04T06:56:05.799Z,1007.11
2017-06-04T06:57:05.776Z,1007.11
2017-06-04T06:58:05.758Z,1007.1
2017-06-04T06:59:05.745Z,1007.09
2017-06-04T07:00:05.737Z,1007.1
2017-06-04T07:01:05.721Z,1007.12
2017-06-04T07:02:05.710Z,1007.17
2017-06-04T07:03:05.693Z,1007.14
2017-06-04T07:04:05.682Z,1007.21
2017-06-04T07:05:05.669Z,1007.23
2017-06-04T07:06:05.651Z,1007.25
2017-06-04T07:07:05.643Z,1007.22
2017-06-04T07:08:05.631Z,1007.25
2017-06-04T07:09:05.617Z,1007.28
2017-06-04T07:10:05.600Z,1007.28
2017-06-04T07:11:05.592Z,1007.29
2017-06-04T07:12:05.573Z,1007.29
2017-06-04T07:13:05.562Z,1007.33
2017-06-04T07:14:05.548Z,1007.36
2017-06-04T07:15:05.539Z,1007.31
2017-06-04T07:16:05.519Z,1007.3
2017-06-04T07:17:05.509Z,1007.28
2017-06-04T07:18:05.498Z,1007.3
2017-06-04T07:19:05.479Z,1007.28
2017-06-04T07:20:05.468Z,1007.31
2017-06-04T07:21:05.461Z,1007.28
2017-06-04T07:22:05.442Z,1007.29
2017-06-04T07:23:05.427Z,1007.33
2017-06-04T07:24:05.419Z,1007.32
2017-06-04T07:25:05.413Z,1007.33
2017-06-04T07:26:05.390Z,1007.35
2017-06-04T07:27:05.381Z,1007.39
2017-06-04T07:28:05.369Z,1007.38
2017-06-04T07:29:05.361Z,1007.37
2017-06-04T07:30:05.338Z,1007.39
2017-06-04T07:31:05.333Z,1007.4
2017-06-04T07:32:05.317Z,1007.41
2017-06-04T07:33:05.307Z,1007.43
2017-06-04T07:34:05.290Z,1007.4
2017-06-04T07:35:05.279Z,1007.41
2017-06-04T07:36:05.268Z,1007.36
2017-06-04T07:37:05.260Z,1007.42
2017-06-04T07:38:05.242Z,1007.45
2017-06-04T07:39:05.228Z,1007.41
2017-06-04T07:40:05.219Z,1007.46
2017-06-04T07:41:05.211Z,1007.47
2017-06-04T07:42:05.200Z,1007.46
2017-06-04T07:43:05.180Z,1007.45
2017-06-04T07:44:05.167Z,1007.48
2017-06-04T07:45:05.155Z,1007.49
2017-06-04T07:46:05.150Z,1007.5
2017-06-04T07:47:05.128Z,1007.47
2017-06-04T07:48:05.120Z,1007.44
2017-06-04T07:49:05.110Z,1007.48
2017-06-04T07:50:05.102Z,1007.48
2017-06-04T07:51:05.092Z,1007.51
2017-06-04T07:52:05.071Z,1007.49
2017-06-04T07:53:05.066Z,1007.45
2017-06-04T07:54:05.051Z,1007.49
2017-06-04T07:55:05.041Z,1007.5
2017-06-04T07:56:05.030Z,1007.49
2017-06-04T07:57:05.021Z,1007.5
2017-06-04T07:58:05.000Z,1007.58
2017-06-04T07:59:04.993Z,1007.56
2017-06-04T08:00:04.978Z,1007.53
2017-06-04T08:01:04.964Z,1007.56
2017-06-04T08:02:04.956Z,1007.56
2017-06-04T08:03:04.950Z,1007.58
2017-06-04T08:04:04.937Z,1007.57
2017-06-04T08:05:04.923Z,1007.51
2017-06-04T08:06:04.909Z,1007.54
2017-06-04T08:07:04.900Z,1007.54
2017-06-04T08:08:04.905Z,1007.58
2017-06-04T08:09:04.885Z,1007.56
2017-06-04T08:10:04.865Z,1007.58
2017-06-04T08:11:04.855Z,1007.62
2017-06-04T08:12:04.850Z,1007.66
2017-06-04T08:13:04.835Z,1007.55
2017-06-04T08:14:04.820Z,1007.62
2017-06-04T08:15:04.809Z,1007.63
2017-06-04T08:16:04.795Z,1007.67
2017-06-04T08:17:04.787Z,1007.67
2017-06-04T08:18:04.775Z,1007.62
2017-06-04T08:19:04.763Z,1007.63
2017-06-04T08:20:04.753Z,1007.62
2017-06-04T08:21:04.743Z,1007.59
2017-06-04T08:22:04.732Z,1007.61
2017-06-04T08:23:04.725Z,1007.62
2017-06-04T08:24:04.718Z,1007.62
2017-06-04T08:25:04.692Z,1007.6
2017-06-04T08:26:04.688Z,1007.56
2017-06-04T08:27:04.679Z,1007.63
2017-06-04T08:28:04.660Z,1007.6
2017-06-04T08:29:04.650Z,1007.6
2017-06-04T08:30:04.638Z,1007.65
2017-06-04T08:31:04.628Z,1007.66
2017-06-04T08:32:04.621Z,1007.62
2017-06-04T08:33:04.608Z,1007.6
2017-06-04T08:34:04.605Z,1007.64
2017-06-04T08:35:04.585Z,1007.63
2017-06-04T08:36:04.780Z,1007.58
2017-06-04T08:37:04.566Z,1007.65
2017-06-04T08:38:04.604Z,1007.65
2017-06-04T08:39:04.543Z,1007.7
2017-06-04T08:40:04.531Z,1007.71
2017-06-04T08:41:04.525Z,1007.69
2017-06-04T08:42:04.513Z,1007.7
2017-06-04T08:43:04.500Z,1007.72
2017-06-04T08:44:04.491Z,1007.73
2017-06-04T08:45:04.481Z,1007.66
2017-06-04T08:46:04.470Z,1007.69
2017-06-04T08:47:04.459Z,1007.73
2017-06-04T08:48:04.451Z,1007.73
2017-06-04T08:49:04.441Z,1007.76
2017-06-04T08:50:04.430Z,1007.71
2017-06-04T08:51:04.423Z,1007.7
2017-06-04T08:52:04.406Z,1007.73
2017-06-04T08:53:04.399Z,1007.76
2017-06-04T08:54:04.390Z,1007.8
2017-06-04T08:55:04.381Z,1007.67
2017-06-04T08:56:04.368Z,1007.7
2017-06-04T08:57:04.371Z,1007.84
2017-06-04T08:58:04.345Z,1007.72
2017-06-04T08:59:04.340Z,1007.72
2017-06-04T09:00:04.330Z,1007.7
2017-06-04T09:01:04.320Z,1007.65
2017-06-04T09:02:04.316Z,1007.73
2017-06-04T09:03:04.299Z,1007.66
2017-06-04T09:04:04.285Z,1007.68
2017-06-04T09:05:04.277Z,1007.99
2017-06-04T09:06:04.269Z,1007.97
2017-06-04T09:07:04.264Z,1007.94
2017-06-04T09:08:04.248Z,1007.99
2017-06-04T09:09:04.239Z,1008.04
2017-06-04T09:10:04.225Z,1008.03
2017-06-04T09:11:04.216Z,1007.93
2017-06-04T09:12:04.208Z,1008.03
2017-06-04T09:13:04.199Z,1007.94
2017-06-04T09:14:04.192Z,1007.81
2017-06-04T09:15:04.194Z,1007.79
2017-06-04T09:16:04.170Z,1007.8
2017-06-04T09:17:04.158Z,1007.77
2017-06-04T09:18:04.151Z,1007.7
2017-06-04T09:19:04.264Z,1007.77
2017-06-04T09:20:04.133Z,1007.78
2017-06-04T09:21:04.250Z,1008
2017-06-04T09:22:04.112Z,1008.04
2017-06-04T09:23:04.106Z,1008.06
2017-06-04T09:24:04.094Z,1008.07
2017-06-04T09:25:04.090Z,1008.07
2017-06-04T09:26:04.074Z,1008.03
2017-06-04T09:27:04.069Z,1008.02
2017-06-04T09:28:04.059Z,1007.99
2017-06-04T09:29:04.053Z,1008.05
2017-06-04T09:30:04.040Z,1008.03
2017-06-04T09:31:04.043Z,1007.92
2017-06-04T09:32:04.025Z,1008
2017-06-04T09:33:04.020Z,1007.98
2017-06-04T09:34:04.040Z,1007.96
2017-06-04T09:35:04.003Z,1008.02
2017-06-04T09:36:03.994Z,1008.04
2017-06-04T09:37:03.986Z,1008.02
2017-06-04T09:38:03.979Z,1008.02
2017-06-04T09:39:03.968Z,1008.13
2017-06-04T09:40:03.960Z,1008.14
2017-06-04T09:41:03.950Z,1008.15
2017-06-04T09:42:03.941Z,1008.19
2017-06-04T09:43:03.934Z,1008.18
2017-06-04T09:44:03.925Z,1008.11
2017-06-04T09:45:03.925Z,1008.11
2017-06-04T09:46:03.913Z,1008.07
2017-06-04T09:47:03.903Z,1008.05
2017-06-04T09:48:03.898Z,1008.26
2017-06-04T09:49:03.888Z,1008.18
2017-06-04T09:50:03.882Z,1008.08
2017-06-04T09:51:03.870Z,1008.09
2017-06-04T09:52:03.865Z,1008.1
2017-06-04T09:53:03.859Z,1008.09
2017-06-04T09:54:03.846Z,1008.15
2017-06-04T09:55:03.839Z,1008.08
2017-06-04T09:56:03.830Z,1008.07
2017-06-04T09:57:03.823Z,1008.11
2017-06-04T09:58:03.812Z,1008.11
2017-06-04T09:59:03.805Z,1008.15
2017-06-04T10:00:03.803Z,1008.18
2017-06-04T10:01:03.787Z,1008.11
2017-06-04T10:02:03.790Z,1008.19
2017-06-04T10:03:03.765Z,1008.14
2017-06-04T10:04:03.760Z,1008.11
2017-06-04T10:05:03.752Z,1008.17
2017-06-04T10:06:03.741Z,1008.18
2017-06-04T10:07:03.730Z,1008.16
2017-06-04T10:08:03.747Z,1008.2
2017-06-04T10:09:03.708Z,1008.15
2017-06-04T10:10:03.703Z,1008.2
2017-06-04T10:11:03.691Z,1008.12
2017-06-04T10:12:03.681Z,1008.12
2017-06-04T10:13:03.671Z,1008.04
2017-06-04T10:14:03.663Z,1008.09
2017-06-04T10:15:03.658Z,1008.07
2017-06-04T10:16:03.643Z,1008.18
2017-06-04T10:17:03.668Z,1008.2
2017-06-04T10:18:03.650Z,1008.13
2017-06-04T10:19:03.619Z,1008.13
2017-06-04T10:20:03.612Z,1008.06
2017-06-04T10:21:03.600Z,1008.1
2017-06-04T10:22:03.592Z,1008.19
2017-06-04T10:23:03.589Z,1008.16
2017-06-04T10:24:03.581Z,1008.17
2017-06-04T10:25:03.567Z,1008.13
2017-06-04T10:26:03.566Z,1008.2
2017-06-04T10:27:03.550Z,1008.24
2017-06-04T10:28:03.541Z,1008.18
2017-06-04T10:29:03.531Z,1008.12
2017-06-04T10:30:03.531Z,1008.14
2017-06-04T10:31:03.522Z,1008.23
2017-06-04T10:32:03.509Z,1008.17
2017-06-04T10:33:03.499Z,1008.18
2017-06-04T10:34:03.500Z,1008.13
2017-06-04T10:35:03.496Z,1008.13
2017-06-04T10:36:03.493Z,1008.16
2017-06-04T10:37:03.466Z,1008.12
2017-06-04T10:38:03.461Z,1008.16
2017-06-04T10:39:03.461Z,1008.16
2017-06-04T10:40:03.449Z,1008.11
2017-06-04T10:41:03.440Z,1008.07
2017-06-04T10:42:03.431Z,1008.14
2017-06-04T10:43:03.424Z,1008.14
2017-06-04T10:44:03.413Z,1008.06
2017-06-04T10:45:03.413Z,1008.1
2017-06-04T10:46:03.400Z,1008.12
2017-06-04T10:47:03.391Z,1008.06
2017-06-04T10:48:03.380Z,1008.08
2017-06-04T10:49:03.374Z,1008.07
2017-06-04T10:50:03.374Z,1008.06
2017-06-04T10:51:03.361Z,1008.06
2017-06-04T10:52:03.354Z,1008.08
2017-06-04T10:53:03.344Z,1008.08
2017-06-04T10:54:03.341Z,1008.06
2017-06-04T10:55:03.331Z,1008
2017-06-04T10:56:03.322Z,1008.09
2017-06-04T10:57:03.320Z,1008.11
2017-06-04T10:58:03.308Z,1008.07
2017-06-04T10:59:03.301Z,1008.09
2017-06-04T11:00:03.290Z,1008.08
2017-06-04T11:01:03.288Z,1008.06
2017-06-04T11:02:03.270Z,1008.06
2017-06-04T11:03:03.270Z,1008.09
2017-06-04T11:04:03.260Z,1008.08
2017-06-04T11:05:03.253Z,1008.17
2017-06-04T11:06:03.243Z,1008.07
2017-06-04T11:07:03.232Z,1008.16
2017-06-04T11:08:03.224Z,1008.12
2017-06-04T11:09:03.231Z,1008.09
2017-06-04T11:10:03.211Z,1008.08
2017-06-04T11:11:03.201Z,1008.08
2017-06-04T11:12:03.190Z,1008.08
2017-06-04T11:13:03.190Z,1008.1
2017-06-04T11:14:03.175Z,1008.1
2017-06-04T11:15:03.168Z,1008.11
2017-06-04T11:16:03.163Z,1008.09
2017-06-04T11:17:03.152Z,1008.11
2017-06-04T11:18:03.141Z,1008.12
2017-06-04T11:19:03.138Z,1008.15
2017-06-04T11:20:03.128Z,1008.11
2017-06-04T11:21:03.118Z,1008.18
2017-06-04T11:22:03.111Z,1008.17
2017-06-04T11:23:03.099Z,1008.13
2017-06-04T11:24:03.091Z,1008.16
2017-06-04T11:25:03.080Z,1008.14
2017-06-04T11:26:03.091Z,1008.13
2017-06-04T11:27:03.121Z,1008.22
2017-06-04T11:28:03.054Z,1008.13
2017-06-04T11:29:03.048Z,1008.17
2017-06-04T11:30:03.040Z,1008.14
2017-06-04T11:31:03.033Z,1008.16
2017-06-04T11:32:03.019Z,1008.18
2017-06-04T11:33:03.010Z,1008.22
2017-06-04T11:34:03.003Z,1008.19
2017-06-04T11:35:02.993Z,1008.22
2017-06-04T11:36:02.979Z,1008.2
2017-06-04T11:37:02.970Z,1008.21
2017-06-04T11:38:02.997Z,1008.16
2017-06-04T11:39:02.971Z,1008.17
2017-06-04T11:40:02.948Z,1008.21
2017-06-04T11:41:02.935Z,1008.19
2017-06-04T11:42:02.930Z,1008.15
2017-06-04T11:43:02.918Z,1008.2
2017-06-04T11:44:02.913Z,1008.18
2017-06-04T11:45:02.901Z,1008.23
2017-06-04T11:46:02.887Z,1008.22
2017-06-04T11:47:02.882Z,1008.25
2017-06-04T11:48:02.870Z,1008.27
2017-06-04T11:49:02.856Z,1008.27
2017-06-04T11:50:02.853Z,1008.28
2017-06-04T11:51:02.839Z,1008.24
2017-06-04T11:52:02.830Z,1008.28
2017-06-04T11:53:02.819Z,1008.26
2017-06-04T11:54:02.813Z,1008.26
2017-06-04T11:55:02.799Z,1008.26
2017-06-04T11:56:02.790Z,1008.24
2017-06-04T11:57:02.782Z,1008.25
2017-06-04T11:58:02.770Z,1008.24
2017-06-04T11:59:02.760Z,1008.25
2017-06-04T12:00:02.752Z,1008.24
2017-06-04T12:01:02.749Z,1008.27
2017-06-04T12:02:02.731Z,1008.23
2017-06-04T12:03:02.717Z,1008.22
2017-06-04T12:04:02.712Z,1008.2
2017-06-04T12:05:02.696Z,1008.21
2017-06-04T12:06:02.690Z,1008.24
2017-06-04T12:07:02.682Z,1008.25
2017-06-04T12:08:02.671Z,1008.29
2017-06-04T12:09:02.663Z,1008.35